Time;durP1;ratioP1;P1;durP2;ratioP2;P2;SDS_P1;SDS_P2;PMS_P1;PMS_P2;Temp;Humidity;BMP_temperature;BMP_pressure;BME280_temperature;BME280_humidity;BME280_pressure;Samples;Min_cycle;Max_cycle;Signal;HPM_P1;HPM_P2
2023/10/30 00:01:48;;;;;;;10.80;6.20;;;;;;;12.85;100.00;99236.46;214117;1285;143624;-88
2023/10/30 00:06:48;;;;;;;13.70;6.00;;;;;;;12.87;100.00;99235.81;214514;1286;139693;-89
2023/10/30 00:11:50;;;;;;;13.70;6.20;;;;;;;12.85;100.00;99235.76;214097;1286;140357;-88
2023/10/30 00:16:51;;;;;;;11.40;6.00;;;;;;;12.84;100.00;99233.79;214886;1289;98391;-90
2023/10/30 00:21:51;;;;;;;11.70;5.60;;;;;;;12.82;100.00;99247.00;214164;1285;139877;-88
2023/10/30 00:26:52;;;;;;;14.40;6.70;;;;;;;12.78;100.00;99260.48;214502;1285;140145;-87
2023/10/30 00:31:53;;;;;;;10.30;5.30;;;;;;;12.74;100.00;99267.73;213980;1286;139890;-87
2023/10/30 00:36:53;;;;;;;12.60;6.80;;;;;;;12.70;100.00;99271.10;214608;1288;139238;-88
2023/10/30 00:41:54;;;;;;;11.70;6.10;;;;;;;12.66;100.00;99280.08;214052;1289;140074;-88
2023/10/30 00:46:55;;;;;;;11.70;6.10;;;;;;;12.60;100.00;99282.85;214564;1285;97966;-88
2023/10/30 00:51:56;;;;;;;11.40;5.80;;;;;;;12.54;100.00;99281.92;213940;1288;140043;-88
2023/10/30 00:56:56;;;;;;;14.10;6.70;;;;;;;12.49;100.00;99287.74;214322;1286;139012;-87
2023/10/30 01:01:57;;;;;;;12.60;6.60;;;;;;;12.44;100.00;99285.46;214315;1286;140008;-90
2023/10/30 01:06:58;;;;;;;12.00;6.40;;;;;;;12.41;100.00;99296.86;214691;1288;139827;-87
2023/10/30 01:11:59;;;;;;;12.20;6.40;;;;;;;12.38;100.00;99301.63;213955;1286;140658;-88
2023/10/30 01:16:59;;;;;;;10.70;6.10;;;;;;;12.36;100.00;99302.14;214317;1286;140334;-88
2023/10/30 01:22:00;;;;;;;12.50;6.30;;;;;;;12.32;100.00;99294.86;214623;1288;139021;-87
2023/10/30 01:27:01;;;;;;;12.40;6.30;;;;;;;12.29;100.00;99298.61;214474;1286;141305;-87
2023/10/30 01:32:02;;;;;;;14.10;6.50;;;;;;;12.25;100.00;99302.92;215165;1285;139982;-86
2023/10/30 01:37:05;;;;;;;10.90;6.30;;;;;;;12.21;100.00;99306.67;214714;1286;140423;-89
2023/10/30 01:42:06;;;;;;;14.00;7.00;;;;;;;12.18;100.00;99307.20;214840;1286;139491;-88
2023/10/30 01:47:07;;;;;;;12.30;7.10;;;;;;;12.15;100.00;99307.86;214730;1286;140415;-88
2023/10/30 01:52:07;;;;;;;16.90;6.80;;;;;;;12.14;100.00;99315.28;214963;1286;139762;-88
2023/10/30 01:57:08;;;;;;;11.80;6.30;;;;;;;12.13;100.00;99319.39;214536;1288;140403;-88
2023/10/30 02:02:10;;;;;;;13.20;6.30;;;;;;;12.12;100.00;99324.30;214763;1288;139062;-87
2023/10/30 02:07:11;;;;;;;12.10;6.30;;;;;;;12.11;100.00;99337.47;214332;1287;141922;-88
2023/10/30 02:12:12;;;;;;;14.50;6.60;;;;;;;12.13;100.00;99347.60;214757;1288;139843;-87
2023/10/30 02:17:13;;;;;;;11.50;6.00;;;;;;;12.12;100.00;99352.98;214305;1288;140960;-86
2023/10/30 02:22:13;;;;;;;11.80;6.70;;;;;;;12.11;100.00;99351.23;214852;1286;139458;-86
2023/10/30 02:27:14;;;;;;;15.00;7.30;;;;;;;12.09;100.00;99345.91;214410;1288;140809;-87
2023/10/30 02:32:14;;;;;;;12.80;6.40;;;;;;;12.09;100.00;99344.51;214686;1288;139619;-87
2023/10/30 02:37:15;;;;;;;12.20;6.70;;;;;;;12.07;100.00;99348.94;214279;1287;142206;-88
2023/10/30 02:42:16;;;;;;;17.80;7.80;;;;;;;12.04;100.00;99342.91;214763;1287;139051;-86
2023/10/30 02:47:16;;;;;;;13.40;6.80;;;;;;;12.01;100.00;99347.91;214274;1288;140150;-87
2023/10/30 02:52:20;;;;;;;13.10;6.60;;;;;;;11.98;100.00;99357.80;214709;1289;139193;-87
2023/10/30 02:57:20;;;;;;;12.10;6.30;;;;;;;11.94;100.00;99365.08;214294;1288;141023;-86
2023/10/30 03:02:21;;;;;;;16.90;7.40;;;;;;;11.94;100.00;99362.58;214740;1288;139006;-86
2023/10/30 03:07:21;;;;;;;17.20;8.10;;;;;;;11.90;100.00;99363.71;214153;1286;140445;-86
2023/10/30 03:12:22;;;;;;;12.40;7.30;;;;;;;11.88;100.00;99377.67;214708;1287;139825;-87
2023/10/30 03:17:23;;;;;;;15.20;7.70;;;;;;;11.85;100.00;99379.68;214062;1286;140512;-85
2023/10/30 03:22:23;;;;;;;11.30;6.40;;;;;;;11.83;100.00;99381.19;214863;1285;139760;-86
2023/10/30 03:27:24;;;;;;;11.10;6.20;;;;;;;11.79;100.00;99386.45;213950;1286;140572;-86
2023/10/30 03:32:25;;;;;;;13.00;6.20;;;;;;;11.74;100.00;99388.08;214671;1285;139858;-86
2023/10/30 03:37:25;;;;;;;11.60;6.10;;;;;;;11.71;100.00;99391.09;214349;1289;140365;-86
2023/10/30 03:42:26;;;;;;;15.50;5.50;;;;;;;11.66;100.00;99382.40;214614;1285;139483;-86
2023/10/30 03:47:26;;;;;;;14.10;7.50;;;;;;;11.61;100.00;99388.83;214237;1286;140670;-85
2023/10/30 03:52:27;;;;;;;10.70;5.60;;;;;;;11.54;100.00;99390.45;214717;1285;139019;-86
2023/10/30 03:57:28;;;;;;;17.50;7.70;;;;;;;11.47;100.00;99400.89;214331;1290;140350;-85
2023/10/30 04:02:29;;;;;;;12.00;6.20;;;;;;;11.41;100.00;99433.21;214900;1285;140164;-86
2023/10/30 04:07:30;;;;;;;13.10;5.80;;;;;;;11.34;100.00;99416.98;214221;1285;140266;-85
2023/10/30 04:12:30;;;;;;;12.00;6.20;;;;;;;11.29;100.00;99396.25;214377;1286;139771;-85
2023/10/30 04:17:31;;;;;;;12.60;5.90;;;;;;;11.22;100.00;99389.23;214113;1285;140182;-85
2023/10/30 04:22:31;;;;;;;12.70;6.70;;;;;;;11.16;100.00;99414.38;214910;1286;138919;-85
2023/10/30 04:27:33;;;;;;;14.10;6.90;;;;;;;11.10;100.00;99415.20;214525;1287;140411;-86
2023/10/30 04:32:34;;;;;;;14.10;7.00;;;;;;;11.05;100.00;99412.73;214769;1286;138995;-86
2023/10/30 04:37:34;;;;;;;13.50;7.00;;;;;;;11.00;100.00;99411.98;214439;1288;140343;-86
2023/10/30 04:42:35;;;;;;;14.90;5.70;;;;;;;10.93;100.00;99417.84;214883;1285;139859;-85
2023/10/30 04:47:36;;;;;;;12.30;6.30;;;;;;;10.87;100.00;99420.02;214294;1285;140156;-86
2023/10/30 04:52:37;;;;;;;14.90;6.70;;;;;;;10.80;100.00;99417.06;214838;1286;138696;-86
2023/10/30 04:57:37;;;;;;;13.40;6.10;;;;;;;10.72;100.00;99414.20;214218;1285;140144;-86
2023/10/30 05:02:38;;;;;;;11.50;5.90;;;;;;;10.62;100.00;99410.09;214714;1291;139126;-87
2023/10/30 05:07:38;;;;;;;9.30;5.50;;;;;;;10.50;100.00;99414.09;214278;1288;141193;-86
2023/10/30 05:12:39;;;;;;;12.10;5.70;;;;;;;10.35;100.00;99420.14;214909;1287;139721;-86
2023/10/30 05:17:40;;;;;;;10.60;5.50;;;;;;;10.21;100.00;99434.02;214428;1288;141106;-87
2023/10/30 05:22:43;;;;;;;10.50;5.50;;;;;;;10.12;100.00;99442.05;218576;1287;139126;-87
2023/10/30 05:27:44;;;;;;;13.00;7.50;;;;;;;10.06;100.00;99453.68;213967;1286;140567;-86
2023/10/30 05:32:44;;;;;;;11.10;6.60;;;;;;;10.00;100.00;99455.64;214715;1291;139711;-86
2023/10/30 05:37:45;;;;;;;14.00;6.60;;;;;;;9.97;100.00;99472.13;214349;1285;140616;-85
2023/10/30 05:42:46;;;;;;;12.50;6.70;;;;;;;9.93;100.00;99463.27;214869;1285;139214;-86
2023/10/30 05:47:48;;;;;;;16.30;7.30;;;;;;;9.93;100.00;99461.06;214401;1286;140027;-87
2023/10/30 05:52:48;;;;;;;13.90;6.70;;;;;;;9.94;100.00;99456.52;214769;1288;98102;-88
2023/10/30 05:57:50;;;;;;;18.70;7.40;;;;;;;9.96;100.00;99462.71;214334;1285;140086;-89
2023/10/30 06:02:51;;;;;;;14.60;7.50;;;;;;;10.02;100.00;99459.95;215091;1284;138846;-88
2023/10/30 06:07:51;;;;;;;14.80;7.70;;;;;;;10.08;100.00;99448.44;214423;1288;140582;-88
2023/10/30 06:12:52;;;;;;;14.60;6.50;;;;;;;10.12;100.00;99444.33;214779;1285;139150;-89
2023/10/30 06:17:53;;;;;;;15.80;7.60;;;;;;;10.15;100.00;99433.86;214482;1288;140465;-91
2023/10/30 06:22:54;;;;;;;15.90;6.80;;;;;;;10.23;100.00;99443.83;215145;1287;97952;-88
2023/10/30 06:27:55;;;;;;;13.30;6.70;;;;;;;10.29;100.00;99461.48;215322;1286;140596;-86
2023/10/30 06:32:55;;;;;;;13.00;7.60;;;;;;;10.36;100.00;99486.45;215593;1285;140003;-87
2023/10/30 06:37:56;;;;;;;15.90;8.70;;;;;;;10.41;100.00;99485.23;215592;1285;143310;-88
2023/10/30 06:42:57;;;;;;;13.80;8.00;;;;;;;10.47;100.00;99488.61;216508;1286;139564;-88
2023/10/30 06:47:58;;;;;;;15.60;8.20;;;;;;;10.54;100.00;99503.76;215307;1289;140355;-88
2023/10/30 06:52:58;;;;;;;13.90;7.70;;;;;;;10.60;100.00;99504.27;215456;1285;137293;-87
2023/10/30 06:57:59;;;;;;;11.40;6.70;;;;;;;10.69;100.00;99493.23;214547;1288;140067;-88
2023/10/30 07:03:00;;;;;;;12.70;6.80;;;;;;;10.73;100.00;99490.23;215464;1285;139184;-91
2023/10/30 07:08:01;;;;;;;13.90;7.70;;;;;;;10.77;100.00;99503.89;215237;1285;140379;-91
2023/10/30 07:13:01;;;;;;;13.90;7.20;;;;;;;10.80;100.00;99513.39;215639;1290;139204;-92
2023/10/30 07:18:02;;;;;;;16.90;8.00;;;;;;;10.90;100.00;99546.69;215233;1285;141602;-90
2023/10/30 07:23:03;;;;;;;16.30;8.20;;;;;;;10.98;100.00;99537.77;215903;1285;97974;-90
2023/10/30 07:28:03;;;;;;;18.00;8.90;;;;;;;11.08;100.00;99536.92;215081;1285;140493;-91
2023/10/30 07:33:04;;;;;;;12.50;7.00;;;;;;;11.17;100.00;99533.17;216183;1291;138611;-92
2023/10/30 07:38:05;;;;;;;13.70;6.80;;;;;;;11.27;100.00;99553.41;215183;1285;140566;-92
2023/10/30 07:43:05;;;;;;;15.40;7.40;;;;;;;11.40;100.00;99552.64;215711;1285;139866;-94
2023/10/30 07:48:06;;;;;;;19.10;6.10;;;;;;;11.54;100.00;99555.15;215707;1286;141016;-92
2023/10/30 07:53:08;;;;;;;12.40;5.30;;;;;;;11.72;100.00;99561.27;215931;1285;97777;-92
2023/10/30 07:58:09;;;;;;;12.20;5.50;;;;;;;11.95;100.00;99556.66;215334;1285;140676;-96
2023/10/30 08:03:11;;;;;;;12.60;5.10;;;;;;;12.18;100.00;99554.73;216414;1288;139164;-93
2023/10/30 08:08:11;;;;;;;14.70;4.90;;;;;;;12.34;100.00;99550.46;215753;1286;140082;-92
2023/10/30 08:13:14;;;;;;;9.80;4.30;;;;;;;12.51;100.00;99547.45;217214;1285;139641;-95
2023/10/30 08:18:15;;;;;;;9.80;4.60;;;;;;;12.78;100.00;99554.08;216501;1285;140316;-96
2023/10/30 08:23:16;;;;;;;13.20;4.20;;;;;;;13.09;100.00;99538.57;216058;1286;99296;-94
2023/10/30 08:28:17;;;;;;;6.50;3.10;;;;;;;13.38;100.00;99543.69;215498;1289;141169;-92
2023/10/30 08:33:18;;;;;;;10.50;3.30;;;;;;;13.57;100.00;99556.30;216839;1286;138794;-95
2023/10/30 08:38:18;;;;;;;9.60;2.80;;;;;;;13.79;100.00;99554.75;216257;1286;141029;-96
2023/10/30 08:43:20;;;;;;;9.30;3.00;;;;;;;14.13;100.00;99560.77;217254;1286;138976;-93
2023/10/30 08:48:21;;;;;;;7.40;2.60;;;;;;;14.57;100.00;99576.52;215555;1285;140145;-92
2023/10/30 08:53:21;;;;;;;12.60;2.80;;;;;;;14.94;100.00;99581.42;216653;1285;99327;-94
2023/10/30 08:58:22;;;;;;;5.30;2.30;;;;;;;15.28;100.00;99581.10;216503;1285;140399;-92
2023/10/30 09:03:23;;;;;;;9.00;2.50;;;;;;;15.59;100.00;99589.30;216518;1285;139454;-91
2023/10/30 09:08:24;;;;;;;7.70;2.90;;;;;;;15.86;100.00;99601.84;215972;1288;140412;-96
2023/10/30 09:13:24;;;;;;;9.80;3.00;;;;;;;16.07;100.00;99617.67;216419;1288;138271;-93
2023/10/30 09:18:28;;;;;;;11.50;3.10;;;;;;;16.23;100.00;99621.55;215874;1290;140225;-93
2023/10/30 09:23:29;;;;;;;9.10;3.40;;;;;;;16.27;100.00;99622.02;216592;1285;107560;-94
2023/10/30 09:28:30;;;;;;;7.70;3.30;;;;;;;16.39;100.00;99625.62;216021;1285;140571;-92
2023/10/30 09:33:32;;;;;;;9.70;3.10;;;;;;;16.55;100.00;99635.95;216337;1285;139442;-90
2023/10/30 09:38:36;;;;;;;10.70;3.30;;;;;;;16.57;100.00;99634.00;216091;1285;140597;-95
2023/10/30 09:43:37;;;;;;;8.10;2.40;;;;;;;16.52;99.98;99626.50;216718;1286;139955;-91
2023/10/30 09:48:41;;;;;;;11.30;3.00;;;;;;;16.49;100.00;99626.27;216124;1291;140376;-93
2023/10/30 09:53:48;;;;;;;7.60;2.60;;;;;;;16.44;100.00;99634.33;217390;1291;107373;-96
2023/10/30 09:58:51;;;;;;;11.90;2.80;;;;;;;16.39;100.00;99637.68;217088;1290;139765;-91
2023/10/30 10:03:54;;;;;;;6.70;2.40;;;;;;;16.39;100.00;99640.86;217669;1285;139625;-93
2023/10/30 10:08:58;;;;;;;6.90;2.80;;;;;;;16.41;100.00;99647.73;216860;1289;140391;-94
2023/10/30 10:13:59;;;;;;;10.00;3.10;;;;;;;16.43;100.00;99642.05;217942;1285;137793;-94
2023/10/30 10:19:21;;;;;;;9.00;3.00;;;;;;;16.41;100.00;99634.39;217735;1285;141223;-94
2023/10/30 10:24:36;;;;;;;13.50;3.50;;;;;;;16.40;99.89;99628.38;217608;1287;139291;-95
2023/10/30 10:29:55;;;;;;;11.50;3.20;;;;;;;16.35;100.00;99638.64;216574;1291;140438;-93
2023/10/30 10:35:02;;;;;;;6.30;2.50;;;;;;;16.33;99.75;99631.23;217415;1291;113844;-93
2023/10/30 10:40:05;;;;;;;5.80;2.60;;;;;;;16.32;99.00;99627.46;216524;1286;140549;-92
2023/10/30 10:45:07;;;;;;;6.20;2.40;;;;;;;16.27;97.06;99619.40;216241;1285;139080;-94
2023/10/30 10:50:08;;;;;;;8.10;2.20;;;;;;;16.23;97.93;99604.20;215788;1291;139942;-92
2023/10/30 10:55:10;;;;;;;9.60;2.70;;;;;;;16.24;98.51;99584.57;216636;1285;139301;-93
2023/10/30 11:00:21;;;;;;;6.30;2.50;;;;;;;16.26;97.20;99585.48;216086;1289;140753;-94
2023/10/30 11:05:29;;;;;;;9.20;3.20;;;;;;;16.33;97.15;99593.48;217239;1285;97878;-95
2023/10/30 11:10:35;;;;;;;8.70;2.60;;;;;;;16.44;96.90;99595.52;215571;1291;139987;-91
2023/10/30 11:15:41;;;;;;;8.10;2.60;;;;;;;16.50;95.71;99593.30;216122;1290;138566;-92
2023/10/30 11:20:42;;;;;;;;;;;;;;;16.57;96.49;99579.77;215806;1285;140427;-95
2023/10/30 11:25:53;;;;;;;10.40;2.60;;;;;;;16.68;96.66;99572.42;216539;1286;125188;-94
2023/10/30 11:30:55;;;;;;;9.90;2.90;;;;;;;16.81;94.51;99568.48;216249;1285;140496;-93
2023/10/30 11:36:15;;;;;;;10.00;2.80;;;;;;;16.91;95.53;99578.29;216685;1291;106457;-95
2023/10/30 11:41:19;;;;;;;8.80;2.80;;;;;;;16.95;95.02;99589.14;216308;1288;140018;-94
2023/10/30 11:46:25;;;;;;;10.60;2.90;;;;;;;16.98;94.47;99600.06;217070;1286;138767;-95
2023/10/30 11:51:27;;;;;;;10.50;2.50;;;;;;;16.96;93.03;99599.43;217379;1285;140007;-94
2023/10/30 11:56:28;;;;;;;11.00;2.80;;;;;;;16.94;92.92;99595.74;217086;1290;138837;-93
2023/10/30 12:01:32;;;;;;;7.40;2.90;;;;;;;16.95;93.45;99593.98;216407;1290;139919;-95
2023/10/30 12:06:33;;;;;;;8.20;2.60;;;;;;;17.00;94.33;99579.45;216897;1288;138736;-94
2023/10/30 12:11:35;;;;;;;12.10;2.70;;;;;;;17.04;94.04;99581.47;216109;1290;139800;-94
2023/10/30 12:16:36;;;;;;;8.70;3.00;;;;;;;17.09;93.80;99577.36;216763;1287;139279;-94
2023/10/30 12:21:37;;;;;;;8.90;2.50;;;;;;;17.15;94.42;99568.39;216305;1286;140813;-93
2023/10/30 12:26:40;;;;;;;7.50;2.30;;;;;;;17.21;92.90;99554.37;216852;1291;139231;-94
2023/10/30 12:31:42;;;;;;;6.50;2.20;;;;;;;17.19;91.12;99563.31;216287;1291;139570;-96
2023/10/30 12:36:46;;;;;;;9.90;2.70;;;;;;;17.17;91.63;99566.03;215893;1290;138672;-96
2023/10/30 12:41:55;;;;;;;7.70;2.50;;;;;;;17.25;91.92;99558.48;215549;1286;139826;-95
2023/10/30 12:46:57;;;;;;;5.20;2.20;;;;;;;17.31;90.97;99568.20;216259;1286;141214;-95
2023/10/30 12:51:58;;;;;;;11.30;2.60;;;;;;;17.34;90.12;99565.59;214971;1289;139660;-93
2023/10/30 12:56:59;;;;;;;13.00;3.60;;;;;;;17.35;91.63;99568.73;215963;1292;139032;-95
2023/10/30 13:02:00;;;;;;;11.70;2.70;;;;;;;17.38;91.72;99567.63;215111;1296;143414;-93
2023/10/30 13:07:03;;;;;;;9.20;3.10;;;;;;;17.41;91.31;99558.88;215834;1289;141094;-91
2023/10/30 13:12:04;;;;;;;8.00;2.30;;;;;;;17.37;88.87;99549.13;216029;1292;138671;-92
2023/10/30 13:17:05;;;;;;;5.70;2.20;;;;;;;17.31;91.51;99549.14;217030;1286;140349;-94
2023/10/30 13:22:05;;;;;;;7.40;2.30;;;;;;;17.26;91.29;99544.98;215658;1290;138541;-90
2023/10/30 13:27:06;;;;;;;7.40;2.60;;;;;;;17.19;90.59;99538.01;215784;1285;140825;-96
2023/10/30 13:32:08;;;;;;;8.40;3.30;;;;;;;17.08;91.47;99536.73;216156;1292;139194;-95
2023/10/30 13:37:09;;;;;;;8.40;2.50;;;;;;;16.99;91.25;99534.77;215907;1292;139997;-94
2023/10/30 13:42:10;;;;;;;9.20;2.80;;;;;;;16.89;91.80;99539.35;215499;1286;138684;-95
2023/10/30 13:47:11;;;;;;;13.50;2.90;;;;;;;16.76;90.30;99530.66;216227;1288;139823;-94
2023/10/30 13:52:13;;;;;;;10.40;2.10;;;;;;;16.63;90.37;99514.37;216502;1285;139372;-94
2023/10/30 13:57:13;;;;;;;9.50;2.50;;;;;;;16.51;90.53;99507.00;216310;1285;140428;-94
2023/10/30 14:02:15;;;;;;;10.50;2.60;;;;;;;16.42;91.19;99512.89;216561;1288;139239;-94
2023/10/30 14:07:16;;;;;;;10.80;2.80;;;;;;;16.33;90.84;99512.48;215636;1291;140777;-91
2023/10/30 14:12:18;;;;;;;10.70;2.80;;;;;;;16.22;91.54;99516.72;216269;1291;139257;-93
2023/10/30 14:17:20;;;;;;;10.20;2.60;;;;;;;16.15;92.34;99524.69;215401;1286;140966;-94
2023/10/30 14:22:21;;;;;;;12.00;3.40;;;;;;;16.07;92.88;99518.39;215493;1286;138758;-93
2023/10/30 14:27:23;;;;;;;14.90;4.60;;;;;;;15.99;92.81;99512.89;215369;1290;141625;-94
2023/10/30 14:32:24;;;;;;;12.70;4.80;;;;;;;15.90;92.98;99515.49;215599;1286;139891;-93
2023/10/30 14:37:25;;;;;;;10.50;3.40;;;;;;;15.81;94.40;99502.00;214852;1288;140869;-94
2023/10/30 14:42:26;;;;;;;14.20;3.80;;;;;;;15.72;95.06;99500.79;217627;1289;139386;-93
2023/10/30 14:47:27;;;;;;;11.20;4.60;;;;;;;15.64;94.98;99510.02;215550;1288;140400;-93
2023/10/30 14:52:28;;;;;;;16.00;4.50;;;;;;;15.52;97.10;99511.42;214915;1285;139410;-91
2023/10/30 14:57:29;;;;;;;9.40;3.60;;;;;;;15.35;98.37;99513.95;214764;1286;140816;-92
2023/10/30 15:02:30;;;;;;;12.00;3.70;;;;;;;15.21;99.07;99513.85;214923;1291;139046;-91
2023/10/30 15:07:31;;;;;;;10.40;3.60;;;;;;;15.07;99.78;99516.00;214524;1291;141136;-92
2023/10/30 15:12:32;;;;;;;31.00;15.20;;;;;;;14.89;100.00;99521.27;214942;1291;139028;-92
2023/10/30 15:17:32;;;;;;;27.00;13.70;;;;;;;14.74;100.00;99513.76;214796;1288;140945;-92
2023/10/30 15:22:36;;;;;;;28.70;14.10;;;;;;;14.59;100.00;99520.78;215141;1291;139412;-93
2023/10/30 15:27:37;;;;;;;28.40;13.70;;;;;;;14.43;100.00;99524.33;214536;1288;140777;-94
2023/10/30 15:32:37;;;;;;;23.80;11.50;;;;;;;14.25;100.00;99528.85;215175;1291;139474;-92
2023/10/30 15:37:39;;;;;;;16.10;7.60;;;;;;;14.06;100.00;99529.48;214788;1289;140309;-92
2023/10/30 15:42:40;;;;;;;12.90;5.70;;;;;;;13.87;100.00;99523.10;215015;1288;139237;-90
2023/10/30 15:47:41;;;;;;;18.40;8.60;;;;;;;13.74;100.00;99523.63;214541;1291;140318;-92
2023/10/30 15:52:42;;;;;;;22.80;12.20;;;;;;;13.61;100.00;99525.66;215626;1285;138988;-92
2023/10/30 15:57:47;;;;;;;21.00;9.70;;;;;;;13.39;100.00;99514.95;214676;1288;140009;-91
2023/10/30 16:02:50;;;;;;;23.70;9.90;;;;;;;13.21;100.00;99499.02;217702;1290;139259;-94
2023/10/30 18:19:46;;;;;;;90.50;32.40;;;;;;;12.35;100.00;99410.29;215419;1288;140638;-86
2023/10/30 18:24:47;;;;;;;83.00;30.10;;;;;;;12.36;100.00;99412.02;215785;1286;96738;-87
2023/10/30 18:29:50;;;;;;;98.60;33.30;;;;;;;12.33;100.00;99401.48;215206;1285;140339;-86
2023/10/30 18:34:51;;;;;;;111.20;37.80;;;;;;;12.33;100.00;99394.80;215816;1288;139921;-87
2023/10/30 18:39:52;;;;;;;97.90;35.00;;;;;;;12.31;100.00;99389.23;215204;1286;141097;-85
2023/10/30 18:44:53;;;;;;;100.10;33.70;;;;;;;12.28;100.00;99374.44;215670;1288;139202;-87
2023/10/30 18:49:54;;;;;;;93.10;35.30;;;;;;;12.26;100.00;99361.22;214840;1287;295106;-86
2023/10/30 18:54:55;;;;;;;98.90;35.10;;;;;;;12.26;100.00;99353.51;215774;1286;98600;-86
2023/10/30 18:59:55;;;;;;;52.80;22.30;;;;;;;12.23;100.00;99344.64;215159;1288;140209;-86
2023/10/30 19:04:56;;;;;;;71.80;26.70;;;;;;;12.22;100.00;99345.98;216535;1288;140426;-87
2023/10/30 19:09:57;;;;;;;84.10;32.20;;;;;;;12.20;100.00;99343.73;218103;1285;140524;-84
2023/10/30 19:14:58;;;;;;;46.50;20.30;;;;;;;12.18;100.00;99353.61;218149;1286;139727;-83
2023/10/30 19:19:59;;;;;;;72.40;30.20;;;;;;;12.16;100.00;99352.78;215734;1286;140325;-84
2023/10/30 19:25:00;;;;;;;63.00;29.90;;;;;;;12.12;100.00;99343.60;218796;1286;96221;-85
2023/10/30 19:30:01;;;;;;;95.50;49.40;;;;;;;12.10;100.00;99325.57;218228;1286;140538;-84
2023/10/30 19:35:02;;;;;;;78.70;37.50;;;;;;;12.09;100.00;99307.38;218612;1288;139385;-84
2023/10/30 19:40:07;;;;;;;49.00;23.30;;;;;;;12.09;100.00;99289.65;218175;1288;140650;-83
2023/10/30 19:45:30;;;;;;;39.30;18.50;;;;;;;12.10;100.00;99286.27;216182;1285;139206;-84
2023/10/30 19:50:31;;;;;;;36.30;19.10;;;;;;;12.08;100.00;99275.73;215326;1288;140339;-84
2023/10/30 19:55:32;;;;;;;31.50;15.60;;;;;;;12.06;100.00;99258.04;215621;1286;139550;-84
2023/10/30 20:00:33;;;;;;;31.20;16.50;;;;;;;12.07;100.00;99239.50;214918;1285;140682;-84
2023/10/30 20:05:34;;;;;;;32.90;16.90;;;;;;;12.08;100.00;99216.23;215538;1286;228144;-86
2023/10/30 20:10:35;;;;;;;34.20;17.10;;;;;;;12.13;100.00;99205.06;215155;1286;141963;-87
2023/10/30 20:15:42;;;;;;;29.90;15.20;;;;;;;12.16;100.00;99200.77;215482;1284;140408;-85
2023/10/30 20:20:44;;;;;;;28.00;14.90;;;;;;;12.19;100.00;99190.86;215564;1286;140451;-85
2023/10/30 20:25:46;;;;;;;24.90;14.00;;;;;;;12.22;100.00;99179.95;215710;1286;139351;-86
2023/10/30 20:30:56;;;;;;;25.40;13.60;;;;;;;12.23;100.00;99167.86;215193;1285;140448;-85
2023/10/30 20:35:59;;;;;;;31.10;14.00;;;;;;;12.24;100.00;99159.26;215747;1285;139328;-84
2023/10/30 20:40:59;;;;;;;27.50;13.80;;;;;;;12.22;100.00;99154.95;215105;1288;140666;-86
2023/10/30 20:46:07;;;;;;;24.70;13.30;;;;;;;12.19;100.00;99149.02;215677;1285;139453;-85
2023/10/30 20:51:10;;;;;;;23.50;13.70;;;;;;;12.16;100.00;99143.01;215007;1286;140615;-84
2023/10/30 20:56:18;;;;;;;24.30;13.50;;;;;;;12.13;100.00;99131.38;215511;1286;139853;-85
2023/10/30 21:01:18;;;;;;;25.50;14.30;;;;;;;12.10;100.00;99131.35;215125;1288;140795;-84
2023/10/30 21:06:19;;;;;;;28.20;15.30;;;;;;;12.08;100.00;99132.64;215609;1288;139099;-86
2023/10/30 21:11:24;;;;;;;26.30;14.20;;;;;;;12.05;100.00;99115.76;215278;1286;139849;-86
2023/10/30 21:16:27;;;;;;;28.20;16.90;;;;;;;12.02;100.00;99098.77;215736;1286;138260;-86
2023/10/30 21:21:30;;;;;;;28.90;15.90;;;;;;;12.01;100.00;99084.54;214973;1286;141556;-85
2023/10/30 21:26:33;;;;;;;32.60;20.70;;;;;;;12.01;100.00;99070.52;218814;1288;139317;-85
2023/10/30 21:31:34;;;;;;;35.80;19.00;;;;;;;12.01;100.00;99057.45;215711;1285;140840;-86
2023/10/30 21:36:36;;;;;;;38.10;20.80;;;;;;;12.01;100.00;99044.29;217003;1284;97877;-85
2023/10/30 21:41:46;;;;;;;39.10;22.00;;;;;;;12.02;100.00;99037.02;215094;1286;140257;-86
2023/10/30 21:46:47;;;;;;;38.00;22.20;;;;;;;12.04;100.00;99037.86;215802;1285;139378;-84
2023/10/30 21:51:48;;;;;;;31.40;21.30;;;;;;;12.09;100.00;99043.44;215300;1284;140447;-84
2023/10/30 21:56:49;;;;;;;34.80;20.50;;;;;;;12.14;100.00;99041.23;215662;1286;139285;-86
2023/10/30 22:01:50;;;;;;;34.20;19.50;;;;;;;12.17;100.00;99040.78;215221;1286;140728;-89
2023/10/30 22:06:51;;;;;;;40.00;21.70;;;;;;;12.22;100.00;99032.41;215955;1285;98063;-84
2023/10/30 22:11:52;;;;;;;37.80;20.70;;;;;;;12.27;100.00;99023.58;215214;1288;140306;-84
2023/10/30 22:16:52;;;;;;;34.30;19.20;;;;;;;12.30;100.00;99005.25;215686;1286;139364;-87
2023/10/30 22:22:15;;;;;;;33.70;20.50;;;;;;;12.34;100.00;98993.27;215051;1284;140313;-85
2023/10/30 22:27:18;;;;;;;33.50;20.80;;;;;;;12.34;100.00;98988.05;215274;1285;140348;-85
2023/10/30 22:32:41;;;;;;;35.30;21.20;;;;;;;12.34;100.00;98993.34;215502;1288;139339;-85
2023/10/30 22:38:02;;;;;;;39.60;21.40;;;;;;;12.32;100.00;98979.11;215390;1288;140474;-85
2023/10/30 22:43:15;;;;;;;36.10;22.00;;;;;;;12.31;100.00;98959.74;218843;1285;105556;-88
2023/10/30 22:48:16;;;;;;;40.90;23.50;;;;;;;12.30;100.00;98940.38;218175;1285;141247;-84
2023/10/30 22:53:18;;;;;;;41.50;22.60;;;;;;;12.30;100.00;98931.78;218832;1288;139831;-85
2023/10/30 22:58:19;;;;;;;40.80;22.70;;;;;;;12.30;100.00;98918.71;218310;1284;140336;-84
2023/10/30 23:03:22;;;;;;;35.00;21.90;;;;;;;12.30;100.00;98905.30;218857;1285;139858;-83
2023/10/30 23:08:22;;;;;;;34.20;19.70;;;;;;;12.31;100.00;98899.07;218217;1285;140878;-83
2023/10/30 23:13:23;;;;;;;31.80;19.10;;;;;;;12.31;100.00;98882.35;219033;1285;96206;-83
2023/10/30 23:18:23;;;;;;;32.40;19.40;;;;;;;12.31;100.00;98872.27;218203;1286;140877;-83
2023/10/30 23:23:24;;;;;;;31.70;19.70;;;;;;;12.30;100.00;98863.05;218643;1284;139218;-84
2023/10/30 23:28:25;;;;;;;35.30;18.30;;;;;;;12.29;100.00;98862.38;218458;1285;140747;-83
2023/10/30 23:33:25;;;;;;;28.10;17.90;;;;;;;12.31;100.00;98850.20;218935;1285;139892;-83
2023/10/30 23:38:25;;;;;;;28.40;17.20;;;;;;;12.33;100.00;98834.23;218337;1284;140113;-84
2023/10/30 23:43:26;;;;;;;31.30;16.70;;;;;;;12.35;100.00;98824.89;218933;1286;96356;-83
2023/10/30 23:48:31;;;;;;;30.00;16.50;;;;;;;12.38;100.00;98814.73;218443;1285;141959;-86
2023/10/30 23:53:31;;;;;;;29.40;16.30;;;;;;;12.40;100.00;98802.46;218867;1284;140554;-83
2023/10/30 23:58:32;;;;;;;28.90;17.20;;;;;;;12.43;100.00;98791.52;215380;1288;140605;-84
